createdAt,value
2022-10-16T00:01:47.949Z,15.53
2022-10-16T00:04:15.826Z,16.37
2022-10-16T00:06:43.614Z,16.03
2022-10-16T00:09:11.368Z,16.07
2022-10-16T00:11:41.779Z,16.80
2022-10-16T00:14:15.094Z,20.47
2022-10-16T00:16:43.261Z,20.93
2022-10-16T00:19:14.045Z,21.70
2022-10-16T00:21:42.618Z,22.10
2022-10-16T00:24:11.758Z,21.30
2022-10-16T00:26:41.161Z,21.23
2022-10-16T00:29:09.968Z,25.23
2022-10-16T00:31:38.160Z,28.23
2022-10-16T00:34:06.044Z,24.77
2022-10-16T00:36:35.288Z,25.17
2022-10-16T00:39:03.443Z,29.23
2022-10-16T00:41:32.677Z,26.93
2022-10-16T00:44:03.198Z,25.90
2022-10-16T00:46:39.571Z,27.40
2022-10-16T00:49:11.912Z,27.90
2022-10-16T00:51:45.711Z,31.47
2022-10-16T00:54:19.447Z,28.23
2022-10-16T00:56:48.581Z,37.03
2022-10-16T00:59:21.262Z,40.50
2022-10-16T01:01:49.497Z,28.33
2022-10-16T01:04:18.028Z,34.23
2022-10-16T01:07:05.985Z,35.50
2022-10-16T01:09:48.144Z,32.30
2022-10-16T01:12:23.973Z,36.87
2022-10-16T01:14:59.676Z,35.40
2022-10-16T01:17:40.817Z,40.83
2022-10-16T01:20:20.732Z,34.87
2022-10-16T01:23:08.648Z,37.80
2022-10-16T01:26:06.533Z,35.63
2022-10-16T01:28:46.974Z,36.40
2022-10-16T01:31:20.680Z,37.50
2022-10-16T01:34:01.632Z,38.77
2022-10-16T01:36:39.832Z,35.73
2022-10-16T01:39:12.718Z,41.50
2022-10-16T01:41:48.833Z,39.97
2022-10-16T01:44:23.704Z,42.00
2022-10-16T01:46:55.018Z,40.83
2022-10-16T01:49:30.619Z,39.43
2022-10-16T01:54:39.844Z,39.10
2022-10-16T01:57:10.153Z,38.47
2022-10-16T01:59:47.856Z,43.37
2022-10-16T02:02:21.355Z,45.30
2022-10-16T02:04:58.600Z,50.07
2022-10-16T02:07:26.777Z,46.77
2022-10-16T02:09:55.909Z,48.47
2022-10-16T02:12:29.066Z,47.77
2022-10-16T02:14:58.596Z,53.17
2022-10-16T02:17:26.876Z,50.63
2022-10-16T02:19:57.864Z,56.07
2022-10-16T02:22:30.825Z,50.50
2022-10-16T02:25:05.877Z,52.10
2022-10-16T02:27:42.583Z,52.10
2022-10-16T02:30:20.462Z,49.10
2022-10-16T02:32:51.425Z,51.70
2022-10-16T02:35:23.826Z,55.97
2022-10-16T02:37:54.529Z,58.43
2022-10-16T02:40:25.279Z,54.87
2022-10-16T02:42:55.724Z,57.57
2022-10-16T02:45:25.266Z,58.47
2022-10-16T02:47:53.335Z,59.27
2022-10-16T02:50:21.799Z,59.20
2022-10-16T02:52:49.894Z,58.27
2022-10-16T02:55:18.054Z,51.97
2022-10-16T02:57:45.942Z,53.78
2022-10-16T03:00:16.692Z,51.47
2022-10-16T03:02:45.822Z,50.43
2022-10-16T03:05:14.955Z,55.33
2022-10-16T03:07:43.512Z,48.37
2022-10-16T03:10:11.580Z,53.23
2022-10-16T03:12:39.328Z,57.03
2022-10-16T03:15:08.739Z,47.40
2022-10-16T03:17:36.741Z,48.20
2022-10-16T03:20:07.555Z,61.00
2022-10-16T03:22:35.343Z,46.70
2022-10-16T03:25:03.975Z,45.73
2022-10-16T03:27:32.237Z,50.30
2022-10-16T03:30:00.193Z,49.30
2022-10-16T03:32:29.853Z,49.43
2022-10-16T03:34:57.985Z,43.10
2022-10-16T03:37:27.618Z,45.17
2022-10-16T03:39:55.875Z,39.03
2022-10-16T03:42:23.686Z,43.63
2022-10-16T03:44:51.425Z,45.17
2022-10-16T03:47:22.581Z,45.50
2022-10-16T03:49:50.806Z,44.47
2022-10-16T03:54:53.268Z,42.53
2022-10-16T03:57:21.635Z,41.47
2022-10-16T03:59:49.476Z,46.97
2022-10-16T04:02:17.802Z,37.20
2022-10-16T04:04:45.538Z,42.97
2022-10-16T04:07:13.337Z,44.10
2022-10-16T04:09:41.216Z,36.87
2022-10-16T04:12:10.299Z,40.57
2022-10-16T04:14:38.248Z,40.27
2022-10-16T04:17:05.993Z,39.70
2022-10-16T04:19:33.916Z,40.43
2022-10-16T04:22:01.777Z,39.77
2022-10-16T04:24:29.491Z,34.77
2022-10-16T04:26:57.494Z,37.28
2022-10-16T04:29:27.648Z,37.90
2022-10-16T04:31:55.652Z,35.87
2022-10-16T04:34:23.695Z,34.70
2022-10-16T04:36:51.509Z,33.07
2022-10-16T04:39:19.402Z,33.23
2022-10-16T04:41:47.313Z,36.07
2022-10-16T04:44:15.396Z,28.90
2022-10-16T04:46:45.367Z,26.53
2022-10-16T04:49:13.181Z,31.40
2022-10-16T04:51:40.957Z,29.87
2022-10-16T04:54:10.068Z,25.60
2022-10-16T04:56:44.031Z,29.80
2022-10-16T04:59:11.792Z,29.63
2022-10-16T05:01:39.780Z,30.67
2022-10-16T05:04:09.514Z,23.70
2022-10-16T05:06:39.418Z,25.10
2022-10-16T05:09:07.986Z,24.10
2022-10-16T05:11:36.196Z,21.50
2022-10-16T05:14:05.730Z,22.90
2022-10-16T05:16:33.612Z,24.37
2022-10-16T05:19:26.187Z,25.03
2022-10-16T05:21:50.792Z,26.97
2022-10-16T05:24:18.559Z,23.87
2022-10-16T05:26:46.595Z,24.93
2022-10-16T05:29:14.529Z,23.37
2022-10-16T05:31:42.334Z,21.13
2022-10-16T05:34:10.152Z,23.83
2022-10-16T05:36:38.042Z,25.87
2022-10-16T05:39:07.149Z,22.23
2022-10-16T05:41:34.928Z,23.67
2022-10-16T05:44:06.782Z,24.30
2022-10-16T05:46:34.724Z,22.60
2022-10-16T05:49:02.747Z,21.77
2022-10-16T05:51:30.682Z,24.90
2022-10-16T05:53:58.449Z,28.00
2022-10-16T05:56:27.690Z,19.67
2022-10-16T05:58:55.584Z,19.80
2022-10-16T06:01:25.084Z,21.77
2022-10-16T06:03:53.749Z,22.33
2022-10-16T06:06:24.988Z,19.27
2022-10-16T06:08:55.322Z,18.57
2022-10-16T06:11:29.349Z,19.43
2022-10-16T06:13:59.615Z,16.57
2022-10-16T06:16:28.109Z,14.00
2022-10-16T06:18:56.906Z,14.30
2022-10-16T06:21:26.936Z,17.43
2022-10-16T06:23:56.120Z,13.43
2022-10-16T06:26:26.717Z,16.07
2022-10-16T06:29:00.658Z,15.13
2022-10-16T06:31:31.695Z,11.40
2022-10-16T06:34:00.159Z,12.90
2022-10-16T06:36:28.576Z,13.17
2022-10-16T06:38:56.561Z,11.80
2022-10-16T06:41:24.713Z,11.27
2022-10-16T06:43:53.231Z,14.37
2022-10-16T06:46:25.001Z,13.53
2022-10-16T06:48:53.888Z,11.60
2022-10-16T06:51:25.026Z,14.33
2022-10-16T06:54:04.697Z,12.73
2022-10-16T06:56:34.456Z,11.77
2022-10-16T06:59:04.119Z,12.93
2022-10-16T07:01:34.890Z,9.70
2022-10-16T07:04:03.152Z,12.13
2022-10-16T07:06:34.411Z,10.60
2022-10-16T07:09:07.045Z,13.10
2022-10-16T07:11:37.687Z,11.37
2022-10-16T07:14:06.337Z,10.80
2022-10-16T07:16:35.441Z,10.87
2022-10-16T07:19:03.863Z,9.30
2022-10-16T07:21:37.475Z,9.87
2022-10-16T07:24:08.521Z,12.63
2022-10-16T07:26:39.965Z,9.57
2022-10-16T07:29:08.435Z,9.50
2022-10-16T07:31:38.839Z,14.73
2022-10-16T07:34:07.252Z,11.17
2022-10-16T07:36:35.494Z,11.17
2022-10-16T07:39:04.278Z,14.77
2022-10-16T07:41:33.761Z,16.40
2022-10-16T07:44:01.572Z,11.33
2022-10-16T07:46:29.834Z,9.63
2022-10-16T07:48:58.959Z,10.27
2022-10-16T07:51:28.015Z,10.48
2022-10-16T07:53:55.830Z,8.33
2022-10-16T07:56:24.676Z,8.97
2022-10-16T07:58:53.515Z,8.70
2022-10-16T08:01:21.640Z,10.40
2022-10-16T08:03:51.645Z,8.95
2022-10-16T08:06:26.706Z,11.90
2022-10-16T08:08:57.164Z,8.77
2022-10-16T08:11:25.856Z,9.18
2022-10-16T08:13:53.729Z,6.55
2022-10-16T08:16:22.628Z,7.82
2022-10-16T08:18:52.381Z,9.43
2022-10-16T08:21:24.384Z,7.97
2022-10-16T08:23:55.080Z,7.28
2022-10-16T08:26:27.531Z,7.97
2022-10-16T08:28:56.602Z,9.48
2022-10-16T08:31:25.685Z,8.75
2022-10-16T08:33:53.760Z,7.18
2022-10-16T08:36:23.083Z,6.47
2022-10-16T08:38:51.552Z,5.93
2022-10-16T08:41:40.869Z,6.50
2022-10-16T08:44:41.985Z,4.43
2022-10-16T08:47:20.565Z,5.47
2022-10-16T08:50:00.810Z,5.57
2022-10-16T08:52:36.395Z,8.70
2022-10-16T08:55:05.702Z,3.70
2022-10-16T08:57:33.775Z,5.97
2022-10-16T09:00:14.394Z,5.25
2022-10-16T09:02:53.854Z,4.28
2022-10-16T09:05:39.450Z,8.82
2022-10-16T09:10:58.235Z,5.75
2022-10-16T09:13:36.286Z,9.73
2022-10-16T09:16:19.472Z,7.32
2022-10-16T09:18:57.993Z,3.50
2022-10-16T09:21:31.437Z,4.68
2022-10-16T09:24:15.264Z,5.90
2022-10-16T09:26:43.673Z,4.97
2022-10-16T09:29:14.894Z,2.60
2022-10-16T09:31:44.196Z,5.15
2022-10-16T09:34:28.479Z,4.88
2022-10-16T09:36:59.704Z,2.63
2022-10-16T09:39:28.797Z,3.65
2022-10-16T09:41:57.637Z,3.08
2022-10-16T09:44:30.955Z,4.25
2022-10-16T09:47:03.992Z,3.42
2022-10-16T09:49:33.023Z,5.00
2022-10-16T09:52:07.492Z,3.42
2022-10-16T09:54:36.559Z,5.60
2022-10-16T09:57:13.448Z,4.82
2022-10-16T09:59:48.630Z,4.28
2022-10-16T10:02:19.532Z,4.82
2022-10-16T10:04:52.827Z,5.75
2022-10-16T10:07:27.635Z,9.27
2022-10-16T10:09:58.691Z,5.30
2022-10-16T10:12:29.998Z,5.47
2022-10-16T10:15:07.188Z,4.60
2022-10-16T10:17:52.016Z,5.40
2022-10-16T10:20:28.393Z,5.80
2022-10-16T10:22:57.356Z,6.97
2022-10-16T10:25:53.291Z,6.75
2022-10-16T10:31:24.282Z,6.03
2022-10-16T10:34:06.254Z,5.47
2022-10-16T10:36:39.694Z,6.43
2022-10-16T10:42:22.983Z,4.30
2022-10-16T10:45:15.392Z,4.20
2022-10-16T10:48:00.469Z,5.05
2022-10-16T10:50:44.157Z,6.03
2022-10-16T10:53:37.359Z,4.90
2022-10-16T10:56:31.855Z,6.28
2022-10-16T10:59:47.267Z,5.22
2022-10-16T11:02:27.624Z,3.72
2022-10-16T11:05:30.708Z,3.53
2022-10-16T11:08:03.109Z,3.58
2022-10-16T11:10:46.075Z,4.10
2022-10-16T11:13:32.461Z,5.07
2022-10-16T11:16:17.568Z,4.70
2022-10-16T11:18:57.820Z,4.80
2022-10-16T11:21:31.282Z,3.85
2022-10-16T11:24:10.110Z,4.32
2022-10-16T11:26:44.000Z,3.97
2022-10-16T11:29:24.362Z,5.30
2022-10-16T11:32:05.803Z,3.95
2022-10-16T11:34:45.747Z,3.05
2022-10-16T11:37:21.630Z,4.32
2022-10-16T11:39:58.192Z,6.00
2022-10-16T11:42:35.568Z,6.03
2022-10-16T11:45:19.656Z,4.65
2022-10-16T11:48:00.101Z,6.28
2022-10-16T11:50:37.194Z,5.05
2022-10-16T11:53:19.373Z,5.47
2022-10-16T11:55:48.593Z,7.72
2022-10-16T11:58:27.834Z,6.30
2022-10-16T12:01:09.147Z,5.65
2022-10-16T12:03:50.630Z,3.60
2022-10-16T12:06:32.376Z,4.88
2022-10-16T12:09:02.050Z,5.55
2022-10-16T12:11:38.934Z,3.65
2022-10-16T12:14:42.927Z,5.43
2022-10-16T12:17:36.717Z,6.97
2022-10-16T12:20:31.675Z,4.75
2022-10-16T12:23:03.311Z,5.63
2022-10-16T12:25:35.600Z,5.82
2022-10-16T12:28:06.949Z,7.82
2022-10-16T12:30:37.856Z,6.38
2022-10-16T12:33:21.768Z,5.90
2022-10-16T12:35:51.847Z,4.45
2022-10-16T12:38:26.440Z,26.20
2022-10-16T12:41:02.523Z,5.38
2022-10-16T12:43:45.626Z,16.80
2022-10-16T12:46:35.835Z,4.22
2022-10-16T12:49:30.714Z,5.88
2022-10-16T12:52:00.225Z,6.68
2022-10-16T12:54:32.267Z,4.60
2022-10-16T12:57:35.502Z,4.10
2022-10-16T13:00:23.352Z,3.88
2022-10-16T13:03:45.890Z,6.20
2022-10-16T13:06:31.923Z,6.75
2022-10-16T13:09:33.240Z,4.50
2022-10-16T13:12:19.367Z,4.70
2022-10-16T13:15:12.889Z,5.47
2022-10-16T13:17:54.787Z,6.15
2022-10-16T13:20:31.976Z,5.15
2022-10-16T13:23:16.354Z,6.35
2022-10-16T13:26:10.007Z,3.72
2022-10-16T13:28:40.165Z,5.07
2022-10-16T13:31:18.692Z,9.77
2022-10-16T13:33:53.701Z,6.50
2022-10-16T13:36:25.748Z,7.60
2022-10-16T13:39:17.534Z,5.55
2022-10-16T13:41:58.261Z,4.13
2022-10-16T13:44:27.341Z,6.28
2022-10-16T13:47:00.830Z,3.92
2022-10-16T13:49:31.202Z,4.40
2022-10-16T13:52:00.933Z,5.50
2022-10-16T13:54:32.122Z,6.63
2022-10-16T13:57:26.293Z,6.35
2022-10-16T13:59:55.423Z,6.43
2022-10-16T14:02:31.262Z,4.97
2022-10-16T14:05:00.154Z,6.05
2022-10-16T14:07:32.061Z,7.35
2022-10-16T14:10:04.709Z,6.93
2022-10-16T14:12:36.273Z,6.80
2022-10-16T14:15:06.027Z,3.85
2022-10-16T14:17:36.900Z,4.13
2022-10-16T14:20:15.176Z,6.10
2022-10-16T14:22:44.108Z,5.55
2022-10-16T14:25:27.851Z,7.07
2022-10-16T14:28:04.689Z,5.53
2022-10-16T14:30:36.076Z,4.30
2022-10-16T14:33:07.225Z,3.95
2022-10-16T14:35:38.377Z,7.28
2022-10-16T14:38:20.071Z,5.28
2022-10-16T14:40:50.622Z,6.00
2022-10-16T14:43:25.524Z,4.82
2022-10-16T14:45:56.878Z,6.40
2022-10-16T14:48:26.153Z,5.18
2022-10-16T14:50:54.658Z,4.55
2022-10-16T14:53:23.132Z,5.75
2022-10-16T14:55:51.631Z,4.65
2022-10-16T14:58:24.570Z,4.85
2022-10-16T15:00:52.382Z,6.65
2022-10-16T15:03:20.527Z,4.43
2022-10-16T15:05:49.379Z,4.88
2022-10-16T15:08:17.431Z,6.63
2022-10-16T15:10:45.600Z,5.63
2022-10-16T15:13:15.035Z,5.07
2022-10-16T15:15:47.279Z,4.80
2022-10-16T15:18:17.796Z,4.68
2022-10-16T15:20:45.763Z,4.05
2022-10-16T15:23:16.859Z,5.07
2022-10-16T15:25:47.144Z,4.65
2022-10-16T15:28:17.050Z,3.67
2022-10-16T15:30:55.866Z,5.95
2022-10-16T15:33:37.043Z,6.80
2022-10-16T15:36:10.258Z,8.05
2022-10-16T15:38:38.937Z,6.40
2022-10-16T15:41:07.641Z,6.88
2022-10-16T15:43:35.504Z,5.15
2022-10-16T15:46:11.877Z,7.10
2022-10-16T15:48:40.032Z,5.40
2022-10-16T15:51:12.609Z,6.55
2022-10-16T15:53:40.559Z,4.15
2022-10-16T15:56:11.823Z,6.15
2022-10-16T15:58:41.125Z,4.80
2022-10-16T16:01:14.835Z,4.60
2022-10-16T16:03:43.116Z,7.22
2022-10-16T16:06:14.154Z,4.45
2022-10-16T16:08:42.141Z,4.45
2022-10-16T16:11:16.545Z,5.05
2022-10-16T16:13:53.326Z,5.70
2022-10-16T16:16:28.886Z,4.28
2022-10-16T16:18:57.055Z,3.95
2022-10-16T16:21:25.676Z,5.95
2022-10-16T16:23:53.573Z,4.93
2022-10-16T16:26:28.388Z,6.57
2022-10-16T16:28:57.630Z,4.45
2022-10-16T16:31:42.199Z,4.18
2022-10-16T16:34:10.390Z,7.38
2022-10-16T16:36:38.443Z,3.67
2022-10-16T16:39:07.156Z,4.78
2022-10-16T16:41:35.214Z,4.20
2022-10-16T16:44:05.434Z,9.02
2022-10-16T16:46:35.763Z,8.15
2022-10-16T16:49:04.798Z,8.27
2022-10-16T16:51:36.937Z,6.60
2022-10-16T16:54:10.223Z,10.90
2022-10-16T16:56:38.162Z,10.68
2022-10-16T16:59:06.171Z,9.93
2022-10-16T17:01:35.400Z,9.40
2022-10-16T17:04:03.542Z,11.73
2022-10-16T17:06:31.825Z,10.15
2022-10-16T17:09:03.717Z,10.02
2022-10-16T17:11:31.955Z,10.52
2022-10-16T17:14:02.375Z,10.73
2022-10-16T17:16:36.285Z,8.45
2022-10-16T17:19:09.500Z,11.48
2022-10-16T17:21:38.188Z,11.63
2022-10-16T17:24:06.981Z,10.13
2022-10-16T17:26:38.327Z,10.02
2022-10-16T17:29:06.381Z,13.80
2022-10-16T17:31:38.758Z,8.77
2022-10-16T17:34:10.220Z,13.50
2022-10-16T17:36:43.853Z,8.05
2022-10-16T17:39:17.773Z,6.93
2022-10-16T17:41:48.245Z,6.18
2022-10-16T17:44:20.206Z,15.15
2022-10-16T17:46:53.960Z,14.35
2022-10-16T17:51:55.911Z,11.93
2022-10-16T17:54:26.177Z,7.45
2022-10-16T17:56:54.125Z,10.00
2022-10-16T17:59:23.238Z,9.43
2022-10-16T18:01:53.257Z,9.57
2022-10-16T18:04:22.438Z,14.85
2022-10-16T18:06:50.888Z,6.82
2022-10-16T18:09:23.085Z,8.55
2022-10-16T18:11:59.527Z,6.70
2022-10-16T18:14:35.545Z,5.95
2022-10-16T18:17:16.565Z,6.50
2022-10-16T18:19:45.153Z,6.30
2022-10-16T18:22:13.948Z,5.07
2022-10-16T18:27:26.692Z,6.70
2022-10-16T18:29:57.510Z,4.18
2022-10-16T18:32:28.067Z,4.30
2022-10-16T18:34:56.013Z,6.07
2022-10-16T18:37:24.229Z,7.63
2022-10-16T18:39:54.111Z,5.22
2022-10-16T18:42:24.046Z,4.97
2022-10-16T18:44:52.760Z,5.53
2022-10-16T18:50:11.141Z,6.57
2022-10-16T18:52:48.681Z,7.60
2022-10-16T18:55:17.416Z,4.82
2022-10-16T18:57:47.289Z,7.75
2022-10-16T19:00:16.977Z,7.18
2022-10-16T19:02:45.910Z,5.38
2022-10-16T19:05:17.661Z,5.20
2022-10-16T19:07:47.583Z,6.35
2022-10-16T19:10:45.323Z,7.60
2022-10-16T19:13:15.592Z,6.88
2022-10-16T19:15:53.194Z,5.07
2022-10-16T19:18:27.664Z,6.60
2022-10-16T19:21:02.525Z,5.20
2022-10-16T19:23:32.177Z,6.72
2022-10-16T19:26:03.150Z,7.45
2022-10-16T19:28:31.697Z,5.30
2022-10-16T19:31:02.804Z,5.28
2022-10-16T19:33:34.649Z,8.98
2022-10-16T19:36:13.326Z,12.18
2022-10-16T19:38:42.789Z,5.93
2022-10-16T19:41:15.107Z,7.22
2022-10-16T19:43:44.546Z,8.93
2022-10-16T19:46:15.386Z,7.25
2022-10-16T19:48:44.494Z,8.90
2022-10-16T19:51:20.228Z,9.13
2022-10-16T19:53:48.609Z,8.43
2022-10-16T19:56:22.848Z,9.48
2022-10-16T19:58:54.112Z,7.57
2022-10-16T20:01:25.732Z,7.53
2022-10-16T20:03:55.445Z,7.95
2022-10-16T20:06:28.465Z,7.45
2022-10-16T20:08:58.279Z,8.50
2022-10-16T20:11:31.054Z,13.52
2022-10-16T20:14:00.962Z,16.45
2022-10-16T20:16:31.176Z,18.45
2022-10-16T20:19:01.273Z,25.00
2022-10-16T20:21:33.977Z,26.20
2022-10-16T20:24:06.956Z,18.58
2022-10-16T20:26:37.180Z,21.45
2022-10-16T20:29:06.444Z,25.70
2022-10-16T20:31:40.394Z,26.48
2022-10-16T20:34:11.343Z,34.17
2022-10-16T20:36:43.330Z,36.63
2022-10-16T20:39:13.833Z,30.05
2022-10-16T20:41:42.012Z,28.23
2022-10-16T20:44:09.967Z,27.70
2022-10-16T20:46:38.074Z,28.75
2022-10-16T20:49:11.618Z,33.45
2022-10-16T20:51:51.010Z,35.08
2022-10-16T20:54:19.057Z,41.33
2022-10-16T20:56:48.141Z,36.55
2022-10-16T20:59:16.874Z,35.92
2022-10-16T21:01:44.907Z,31.30
2022-10-16T21:04:13.109Z,26.27
2022-10-16T21:06:41.065Z,26.15
2022-10-16T21:09:11.096Z,30.65
2022-10-16T21:11:40.706Z,28.65
2022-10-16T21:14:09.483Z,31.52
2022-10-16T21:16:37.987Z,27.88
2022-10-16T21:19:06.650Z,30.75
2022-10-16T21:21:38.195Z,30.08
2022-10-16T21:24:12.022Z,28.25
2022-10-16T21:26:44.616Z,27.65
2022-10-16T21:29:15.325Z,29.05
2022-10-16T21:31:43.298Z,27.17
2022-10-16T21:34:12.218Z,28.05
2022-10-16T21:36:44.468Z,27.15
2022-10-16T21:39:16.624Z,24.02
2022-10-16T21:41:49.306Z,25.33
2022-10-16T21:44:20.999Z,26.42
2022-10-16T21:46:51.004Z,26.88
2022-10-16T21:49:19.626Z,34.13
2022-10-16T21:51:50.718Z,29.10
2022-10-16T21:54:21.252Z,24.60
2022-10-16T21:56:54.624Z,27.70
2022-10-16T21:59:22.866Z,27.88
2022-10-16T22:01:54.100Z,25.13
2022-10-16T22:04:22.703Z,20.30
2022-10-16T22:06:51.757Z,21.08
2022-10-16T22:09:20.042Z,21.65
2022-10-16T22:11:47.953Z,27.00
2022-10-16T22:14:20.681Z,23.17
2022-10-16T22:16:50.510Z,18.93
2022-10-16T22:19:21.849Z,22.73
2022-10-16T22:21:54.338Z,24.25
2022-10-16T22:24:22.500Z,25.23
2022-10-16T22:26:50.767Z,33.13
2022-10-16T22:29:20.206Z,26.30
2022-10-16T22:31:52.248Z,27.10
2022-10-16T22:34:20.759Z,26.30
2022-10-16T22:36:50.769Z,29.93
2022-10-16T22:39:18.972Z,38.90
2022-10-16T22:41:46.811Z,33.08
2022-10-16T22:44:14.951Z,35.15
2022-10-16T22:46:44.314Z,35.22
2022-10-16T22:49:12.444Z,35.70
2022-10-16T22:51:40.401Z,34.83
2022-10-16T22:54:08.278Z,40.58
2022-10-16T22:56:36.257Z,38.72
2022-10-16T22:59:04.416Z,37.00
2022-10-16T23:01:37.071Z,33.75
2022-10-16T23:04:07.052Z,27.37
2022-10-16T23:06:35.511Z,31.88
2022-10-16T23:09:05.254Z,37.30
2022-10-16T23:11:34.429Z,36.47
2022-10-16T23:14:02.445Z,35.03
2022-10-16T23:16:30.272Z,34.58
2022-10-16T23:18:58.600Z,35.65
2022-10-16T23:21:29.685Z,31.65
2022-10-16T23:23:59.083Z,26.98
2022-10-16T23:26:27.983Z,29.75
2022-10-16T23:28:57.467Z,33.45
2022-10-16T23:31:26.910Z,29.73
2022-10-16T23:33:56.131Z,28.23
2022-10-16T23:36:24.476Z,27.55
2022-10-16T23:38:53.997Z,33.40
2022-10-16T23:41:22.653Z,28.10
2022-10-16T23:43:51.348Z,25.67
2022-10-16T23:46:19.642Z,25.38
2022-10-16T23:48:47.668Z,26.23
2022-10-16T23:51:16.092Z,28.93
2022-10-16T23:53:44.066Z,23.00
2022-10-16T23:56:14.497Z,24.30
2022-10-16T23:58:42.665Z,23.42
